Time;durP1;ratioP1;P1;durP2;ratioP2;P2;SDS_P1;SDS_P2;PMS_P1;PMS_P2;Temp;Humidity;BMP_temperature;BMP_pressure;BME280_temperature;BME280_humidity;BME280_pressure;Samples;Min_cycle;Max_cycle;Signal;HPM_P1;HPM_P2
2022/03/08 00:01:00;;;;;;;36.15;16.38;;;;;;;-139.48;100.00;61774.03;5012797;28;19963;-73
2022/03/08 00:03:44;;;;;;;;;;;;;;;-139.48;100.00;61774.03;5013448;28;20064;-74
2022/03/08 00:06:28;;;;;;;31.17;13.80;;;;;;;-139.48;100.00;61774.03;5012930;28;19920;-73
2022/03/08 00:09:12;;;;;;;29.48;13.88;;;;;;;-139.48;100.00;61774.03;5013215;28;20263;-74
2022/03/08 00:11:55;;;;;;;27.33;13.95;;;;;;;-139.48;100.00;61774.03;5012824;28;20161;-74
2022/03/08 00:14:39;;;;;;;;;;;;;;;-139.48;100.00;61774.03;5013247;28;20493;-73
2022/03/08 00:17:23;;;;;;;22.75;13.45;;;;;;;-139.48;100.00;61774.03;5011655;28;19920;-75
2022/03/08 00:20:08;;;;;;;29.38;14.15;;;;;;;-139.48;100.00;61774.03;5012866;28;20465;-75
2022/03/08 00:22:52;;;;;;;28.58;13.90;;;;;;;-139.48;100.00;61774.03;5012591;28;20056;-75
2022/03/08 00:25:37;;;;;;;22.52;13.95;;;;;;;-139.48;100.00;61774.03;5012476;28;20065;-75
2022/03/08 00:28:21;;;;;;;25.08;12.85;;;;;;;-139.48;100.00;61774.03;5012740;28;20049;-75
2022/03/08 00:31:05;;;;;;;27.85;15.18;;;;;;;-139.48;100.00;61774.03;5012829;28;20414;-75
2022/03/08 00:33:48;;;;;;;26.92;13.95;;;;;;;-139.48;100.00;61774.03;5012922;28;20053;-75
2022/03/08 00:36:33;;;;;;;28.90;14.63;;;;;;;-139.48;100.00;61774.03;5014205;28;20049;-74
2022/03/08 00:39:18;;;;;;;25.13;13.35;;;;;;;-139.48;100.00;61774.03;5016458;28;20524;-74
2022/03/08 00:42:02;;;;;;;25.42;13.75;;;;;;;-139.48;100.00;61774.03;5016310;28;20362;-72
2022/03/08 00:44:46;;;;;;;25.95;13.88;;;;;;;-139.48;100.00;61774.03;5014911;28;20173;-75
2022/03/08 00:47:30;;;;;;;23.23;13.40;;;;;;;-139.48;100.00;61774.03;5016321;28;20132;-75
2022/03/08 00:50:19;;;;;;;24.23;13.45;;;;;;;-139.48;100.00;61774.03;5016313;28;20135;-75
2022/03/08 00:53:03;;;;;;;21.05;12.73;;;;;;;-139.48;100.00;61774.03;5015874;28;20048;-75
2022/03/08 00:55:47;;;;;;;26.55;13.52;;;;;;;-139.48;100.00;61774.03;5015943;28;20084;-75
2022/03/08 00:58:31;;;;;;;25.00;12.60;;;;;;;-139.48;100.00;61774.03;5015870;28;20524;-75
2022/03/08 01:01:15;;;;;;;27.27;13.30;;;;;;;-139.48;100.00;61774.03;5016080;28;20528;-74
2022/03/08 01:03:58;;;;;;;26.20;12.73;;;;;;;-139.48;100.00;61774.03;5015842;28;20099;-75
2022/03/08 01:06:43;;;;;;;25.38;13.43;;;;;;;-139.48;100.00;61774.03;5015723;28;20044;-75
2022/03/08 01:09:27;;;;;;;22.80;12.85;;;;;;;-139.48;100.00;61774.03;5014618;28;20045;-75
2022/03/08 01:12:11;;;;;;;;;;;;;;;-139.48;100.00;61774.03;5015917;28;20057;-75
2022/03/08 01:14:56;;;;;;;24.05;12.65;;;;;;;-139.48;100.00;61774.03;5015687;28;20265;-75
2022/03/08 01:17:41;;;;;;;23.38;12.85;;;;;;;-139.48;100.00;61774.03;5014495;28;20061;-74
2022/03/08 01:20:25;;;;;;;24.90;13.10;;;;;;;-139.48;100.00;61774.03;5015656;28;20052;-75
2022/03/08 01:23:09;;;;;;;22.10;12.70;;;;;;;-139.48;100.00;61774.03;5015616;28;20096;-75
2022/03/08 01:25:53;;;;;;;;;;;;;;;-139.48;100.00;61774.03;5014929;28;20100;-75
2022/03/08 01:28:37;;;;;;;26.60;13.77;;;;;;;-139.48;100.00;61774.03;5015271;28;19967;-74
2022/03/08 01:31:20;;;;;;;24.85;13.10;;;;;;;-139.48;100.00;61774.03;5015763;28;20111;-75
2022/03/08 01:34:04;;;;;;;;;;;;;;;-139.48;100.00;61774.03;5014853;28;20495;-75
2022/03/08 01:36:48;;;;;;;24.95;12.32;;;;;;;-139.48;100.00;61774.03;5014102;28;19972;-75
2022/03/08 01:39:32;;;;;;;30.73;14.10;;;;;;;-139.48;100.00;61774.03;5015110;28;20418;-75
2022/03/08 01:42:18;;;;;;;26.42;12.85;;;;;;;-139.48;100.00;61774.03;5014191;28;20406;-74
2022/03/08 01:45:03;;;;;;;29.67;14.98;;;;;;;-139.48;100.00;61774.03;5013928;28;20124;-75
2022/03/08 01:47:47;;;;;;;33.72;16.52;;;;;;;-139.48;100.00;61774.03;5014906;28;20410;-75
2022/03/08 01:50:31;;;;;;;;;;;;;;;-139.48;100.00;61774.03;5015540;28;20514;-74
2022/03/08 01:53:15;;;;;;;31.05;13.15;;;;;;;-139.48;100.00;61774.03;5014880;28;19979;-75
2022/03/08 01:55:59;;;;;;;22.95;12.35;;;;;;;-139.48;100.00;61774.03;5014666;28;20053;-74
2022/03/08 01:58:43;;;;;;;25.33;12.70;;;;;;;-139.48;100.00;61774.03;5015221;28;20129;-75
2022/03/08 02:01:26;;;;;;;;;;;;;;;-139.48;100.00;61774.03;5015445;28;20091;-75
2022/03/08 02:04:12;;;;;;;23.35;11.55;;;;;;;-139.48;100.00;61774.03;5014827;28;19924;-75
2022/03/08 02:06:56;;;;;;;23.17;12.35;;;;;;;-139.48;100.00;61774.03;5014815;28;20057;-75
2022/03/08 02:09:40;;;;;;;20.80;11.75;;;;;;;-139.48;100.00;61774.03;5015014;28;20111;-74
2022/03/08 02:12:24;;;;;;;22.05;11.90;;;;;;;-139.48;100.00;61774.03;5014408;28;20045;-75
2022/03/08 02:15:15;;;;;;;21.95;11.93;;;;;;;-139.48;100.00;61774.03;5013281;28;20080;-75
2022/03/08 02:18:00;;;;;;;25.23;12.88;;;;;;;-139.48;100.00;61774.03;5013552;28;20127;-75
2022/03/08 02:20:45;;;;;;;19.98;10.95;;;;;;;-139.48;100.00;61774.03;5013515;28;20048;-74
2022/03/08 02:23:29;;;;;;;24.10;12.38;;;;;;;-139.48;100.00;61774.03;5013456;28;20501;-75
2022/03/08 02:26:13;;;;;;;;;;;;;;;-139.48;100.00;61774.03;5014595;28;20076;-74
2022/03/08 02:28:58;;;;;;;16.60;8.50;;;;;;;-139.48;100.00;61774.03;5014459;28;20373;-74
2022/03/08 02:31:42;;;;;;;22.33;12.27;;;;;;;-139.48;100.00;61774.03;5013256;28;20048;-74
2022/03/08 02:34:26;;;;;;;;;;;;;;;-139.48;100.00;61774.03;5014709;28;20053;-75
2022/03/08 02:37:13;;;;;;;20.88;10.88;;;;;;;-139.48;100.00;61774.03;5014195;28;20451;-75
2022/03/08 02:39:57;;;;;;;26.30;11.73;;;;;;;-139.48;100.00;61774.03;5014095;28;20083;-75
2022/03/08 02:42:41;;;;;;;21.05;11.15;;;;;;;-139.48;100.00;61774.03;5014132;28;20481;-74
2022/03/08 02:45:25;;;;;;;19.13;10.98;;;;;;;-139.48;100.00;61774.03;5012787;28;20049;-75
2022/03/08 02:48:11;;;;;;;19.05;9.77;;;;;;;-139.48;100.00;61774.03;5012806;28;20532;-75
2022/03/08 02:50:55;;;;;;;25.98;12.48;;;;;;;-139.48;100.00;61774.03;5014008;28;20072;-75
2022/03/08 02:53:40;;;;;;;23.50;11.57;;;;;;;-139.48;100.00;61774.03;5013624;28;20209;-74
2022/03/08 02:56:24;;;;;;;;;;;;;;;-139.48;100.00;61774.03;5013254;28;20096;-75
2022/03/08 02:59:08;;;;;;;19.30;10.82;;;;;;;-139.48;100.00;61774.03;5013223;28;19920;-75
2022/03/08 03:01:51;;;;;;;19.90;10.40;;;;;;;-139.48;100.00;61774.03;5012794;28;20613;-75
2022/03/08 03:04:36;;;;;;;;;;;;;;;-139.48;100.00;61774.03;5013895;28;20052;-75
2022/03/08 03:07:22;;;;;;;20.88;10.32;;;;;;;-139.48;100.00;61774.03;5013721;28;19947;-75
2022/03/08 03:10:08;;;;;;;21.05;11.13;;;;;;;-139.48;100.00;61774.03;5013456;28;20564;-75
2022/03/08 03:12:53;;;;;;;19.98;10.35;;;;;;;-139.48;100.00;61774.03;5013268;28;20049;-75
2022/03/08 03:15:37;;;;;;;20.45;11.13;;;;;;;-139.48;100.00;61774.03;5012519;28;20100;-75
2022/03/08 03:18:21;;;;;;;;;;;;;;;-139.48;100.00;61774.03;5013931;28;20100;-75
2022/03/08 03:21:05;;;;;;;21.23;10.65;;;;;;;-139.48;100.00;61774.03;5013260;28;19924;-74
2022/03/08 03:23:49;;;;;;;21.13;10.15;;;;;;;-139.48;100.00;61774.03;5013335;28;20044;-75
2022/03/08 03:26:33;;;;;;;21.45;10.38;;;;;;;-139.48;100.00;61774.03;5013043;28;20107;-73
2022/03/08 03:29:17;;;;;;;;;;;;;;;-139.48;100.00;61774.03;5013519;28;20049;-75
2022/03/08 03:32:01;;;;;;;17.73;9.63;;;;;;;-139.48;100.00;61774.03;5013057;28;19971;-75
2022/03/08 03:34:45;;;;;;;20.70;10.88;;;;;;;-139.48;100.00;61774.03;5012186;28;20084;-74
2022/03/08 03:37:30;;;;;;;20.40;10.98;;;;;;;-139.48;100.00;61774.03;5013265;28;20135;-75
2022/03/08 03:40:14;;;;;;;18.98;10.00;;;;;;;-139.48;100.00;61774.03;5012989;28;20110;-75
2022/03/08 03:42:58;;;;;;;;;;;;;;;-139.48;100.00;61774.03;5013647;28;20107;-74
2022/03/08 03:45:42;;;;;;;17.67;9.52;;;;;;;-139.48;100.00;61774.03;5012833;28;19971;-74
2022/03/08 03:48:26;;;;;;;22.27;10.73;;;;;;;-139.48;100.00;61774.03;5012038;28;20052;-75
2022/03/08 03:51:11;;;;;;;16.80;9.75;;;;;;;-139.48;100.00;61774.03;5013229;28;20414;-75
2022/03/08 03:53:55;;;;;;;19.55;10.23;;;;;;;-139.48;100.00;61774.03;5013062;28;20049;-76
2022/03/08 03:56:39;;;;;;;18.27;9.98;;;;;;;-139.48;100.00;61774.03;5012106;28;20053;-75
2022/03/08 03:59:23;;;;;;;;;;;;;;;-139.48;100.00;61774.03;5013527;28;20513;-75
2022/03/08 04:02:06;;;;;;;20.70;10.23;;;;;;;-139.48;100.00;61774.03;5013091;28;20384;-74
2022/03/08 04:04:50;;;;;;;;;;;;;;;-139.48;100.00;61774.03;5012297;28;20121;-75
2022/03/08 04:07:35;;;;;;;19.63;10.75;;;;;;;-139.48;100.00;61774.03;5012721;28;19919;-74
2022/03/08 04:10:19;;;;;;;19.50;9.88;;;;;;;-139.48;100.00;61774.03;5014765;28;20131;-75
2022/03/08 04:13:04;;;;;;;19.63;10.35;;;;;;;-139.48;100.00;61774.03;5016955;28;20068;-75
2022/03/08 04:15:48;;;;;;;18.73;9.85;;;;;;;-139.48;100.00;61774.03;5016691;28;20141;-75
2022/03/08 04:18:31;;;;;;;;;;;;;;;-139.48;100.00;61774.03;5017358;28;20523;-75
2022/03/08 04:21:16;;;;;;;19.75;10.85;;;;;;;-139.48;100.00;61774.03;5016898;28;19963;-75
2022/03/08 04:24:00;;;;;;;18.17;9.98;;;;;;;-139.48;100.00;61774.03;5016666;28;20414;-75
2022/03/08 04:26:44;;;;;;;;;;;;;;;-139.48;100.00;61774.03;5017384;28;20108;-74
2022/03/08 04:29:28;;;;;;;21.40;11.10;;;;;;;-139.48;100.00;61774.03;5016724;28;19924;-74
2022/03/08 04:32:11;;;;;;;;;;;;;;;-139.48;100.00;61774.03;5016951;28;20048;-74
2022/03/08 04:34:55;;;;;;;22.73;10.25;;;;;;;-139.48;100.00;61774.03;5016503;28;19919;-75
2022/03/08 04:37:39;;;;;;;18.58;9.98;;;;;;;-139.48;100.00;61774.03;5016327;28;20135;-75
2022/03/08 04:40:23;;;;;;;;;;;;;;;-139.48;100.00;61774.03;5016983;28;20052;-75
2022/03/08 04:43:07;;;;;;;18.90;10.38;;;;;;;-139.48;100.00;61774.03;5016312;28;20022;-75
2022/03/08 04:45:51;;;;;;;21.05;10.20;;;;;;;-139.48;100.00;61774.03;5016142;28;20084;-75
2022/03/08 04:48:35;;;;;;;;;;;;;;;-139.48;100.00;61774.03;5016641;28;20156;-75
2022/03/08 04:51:19;;;;;;;20.25;9.73;;;;;;;-139.48;100.00;61774.03;5016052;28;19932;-75
2022/03/08 04:54:03;;;;;;;21.48;11.05;;;;;;;-139.48;100.00;61774.03;5015966;28;20053;-75
2022/03/08 04:56:47;;;;;;;23.17;11.23;;;;;;;-139.48;100.00;61774.03;5014859;28;20044;-75
2022/03/08 04:59:31;;;;;;;;;;;;;;;-139.48;100.00;61774.03;5016617;28;20116;-74
2022/03/08 05:02:14;;;;;;;22.70;10.50;;;;;;;-139.48;100.00;61774.03;5016111;28;20389;-75
2022/03/08 05:04:58;;;;;;;17.50;10.35;;;;;;;-139.48;100.00;61774.03;5015064;28;20169;-74
2022/03/08 05:07:42;;;;;;;;;;;;;;;-139.48;100.00;61774.03;5015360;28;20104;-75
2022/03/08 05:10:26;;;;;;;19.58;9.70;;;;;;;-139.48;100.00;61774.03;5015910;28;20321;-75
2022/03/08 05:13:11;;;;;;;19.02;10.35;;;;;;;-139.48;100.00;61774.03;5015729;28;20050;-75
2022/03/08 05:15:55;;;;;;;17.80;9.77;;;;;;;-139.48;100.00;61774.03;5015498;28;20123;-72
2022/03/08 05:18:39;;;;;;;21.85;10.85;;;;;;;-139.48;100.00;61774.03;5014656;28;20040;-75
2022/03/08 05:21:24;;;;;;;19.58;9.88;;;;;;;-139.48;100.00;61774.03;5015175;28;20041;-73
2022/03/08 05:24:07;;;;;;;;;;;;;;;-139.48;100.00;61774.03;5017606;28;20080;-73
2022/03/08 05:26:51;;;;;;;18.08;10.50;;;;;;;-139.48;100.00;61774.03;5015852;28;19940;-74
2022/03/08 05:29:35;;;;;;;21.30;11.57;;;;;;;-139.48;100.00;61774.03;5015294;28;20088;-74
2022/03/08 05:32:19;;;;;;;;;;;;;;;-139.48;100.00;61774.03;5015804;28;20358;-74
2022/03/08 05:35:03;;;;;;;23.92;11.18;;;;;;;-139.48;100.00;61774.03;5014297;28;20349;-73
2022/03/08 05:37:47;;;;;;;27.52;13.25;;;;;;;-139.48;100.00;61774.03;5014361;28;20118;-74
2022/03/08 05:40:32;;;;;;;;;;;;;;;-139.48;100.00;61774.03;5014438;28;20057;-74
2022/03/08 05:43:16;;;;;;;39.58;15.57;;;;;;;-139.48;100.00;61774.03;5014982;28;19983;-73
2022/03/08 05:46:00;;;;;;;22.20;12.57;;;;;;;-139.48;100.00;61774.03;5014857;28;20049;-73
2022/03/08 05:48:44;;;;;;;21.23;11.52;;;;;;;-139.48;100.00;61774.03;5015161;28;20049;-73
2022/03/08 05:51:28;;;;;;;;;;;;;;;-139.48;100.00;61774.03;5015333;28;20060;-74
2022/03/08 05:54:12;;;;;;;19.63;10.70;;;;;;;-139.48;100.00;61774.03;5014970;28;20023;-73
2022/03/08 05:56:55;;;;;;;19.85;11.07;;;;;;;-139.48;100.00;61774.03;5015324;28;20069;-74
2022/03/08 05:59:40;;;;;;;19.40;10.77;;;;;;;-139.48;100.00;61774.03;5014758;28;20057;-73
2022/03/08 06:02:23;;;;;;;23.52;11.45;;;;;;;-139.48;100.00;61774.03;5014899;28;20077;-73
2022/03/08 06:05:07;;;;;;;;;;;;;;;-139.48;100.00;61774.03;5015177;28;20107;-74
2022/03/08 06:07:51;;;;;;;16.23;7.85;;;;;;;-139.48;100.00;61774.03;5013800;28;20019;-74
2022/03/08 06:10:36;;;;;;;;;;;;;;;-139.48;100.00;61774.03;5015179;28;20402;-72
2022/03/08 06:13:19;;;;;;;25.08;10.75;;;;;;;-139.48;100.00;61774.03;5014651;28;19983;-73
2022/03/08 06:16:04;;;;;;;21.42;11.32;;;;;;;-139.48;100.00;61774.03;5014566;28;20064;-73
2022/03/08 06:18:48;;;;;;;24.50;12.18;;;;;;;-139.48;100.00;61774.03;5014651;28;20052;-73
2022/03/08 06:21:31;;;;;;;;;;;;;;;-139.48;100.00;61774.03;5014987;28;20077;-73
2022/03/08 06:24:16;;;;;;;24.55;11.98;;;;;;;-139.48;100.00;61774.03;5014225;28;19920;-74
2022/03/08 06:26:59;;;;;;;;;;;;;;;-139.48;100.00;61774.03;5014751;28;20548;-73
2022/03/08 06:29:43;;;;;;;32.38;14.55;;;;;;;-139.48;100.00;61774.03;5014422;28;19990;-73
2022/03/08 06:32:28;;;;;;;28.10;14.68;;;;;;;-139.48;100.00;61774.03;5014454;28;20194;-74
2022/03/08 06:35:13;;;;;;;;;;;;;;;-139.48;100.00;61774.03;5013117;28;20387;-73
2022/03/08 06:37:57;;;;;;;27.98;14.27;;;;;;;-139.48;100.00;61774.03;5013974;28;19943;-73
2022/03/08 06:40:40;;;;;;;;;;;;;;;-139.48;100.00;61774.03;5014375;28;20421;-73
2022/03/08 06:43:24;;;;;;;22.83;9.10;;;;;;;-139.48;100.00;61774.03;5013914;28;19920;-73
2022/03/08 06:46:08;;;;;;;;;;;;;;;-139.48;100.00;61774.03;5014112;28;20408;-73
2022/03/08 06:48:53;;;;;;;23.88;11.50;;;;;;;-139.48;100.00;61774.03;5013032;28;19979;-73
2022/03/08 06:51:37;;;;;;;26.80;12.25;;;;;;;-139.48;100.00;61774.03;5013057;28;20100;-72
2022/03/08 06:54:21;;;;;;;;;;;;;;;-139.48;100.00;61774.03;5014307;28;20094;-73
2022/03/08 06:57:05;;;;;;;21.17;12.00;;;;;;;-139.48;100.00;61774.03;5013655;28;19959;-72
2022/03/08 06:59:49;;;;;;;;;;;;;;;-139.48;100.00;61774.03;5012994;28;20577;-73
2022/03/08 07:02:33;;;;;;;20.00;10.25;;;;;;;-139.48;100.00;61774.03;5013627;28;19919;-73
2022/03/08 07:05:17;;;;;;;21.08;10.25;;;;;;;-139.48;100.00;61774.03;5012687;28;20088;-72
2022/03/08 07:08:01;;;;;;;18.02;10.18;;;;;;;-139.48;100.00;61774.03;5012459;28;20068;-73
2022/03/08 07:10:45;;;;;;;17.65;9.63;;;;;;;-139.48;100.00;61774.03;5013562;28;20096;-73
2022/03/08 07:13:29;;;;;;;24.65;10.60;;;;;;;-139.48;100.00;61774.03;5013658;28;20111;-73
2022/03/08 07:16:13;;;;;;;18.63;10.00;;;;;;;-139.48;100.00;61774.03;5013352;28;20433;-73
2022/03/08 07:18:57;;;;;;;20.15;10.05;;;;;;;-139.48;100.00;61774.03;5013820;28;20048;-73
2022/03/08 07:21:41;;;;;;;16.88;10.00;;;;;;;-139.48;100.00;61774.03;5013499;28;20048;-73
2022/03/08 07:24:25;;;;;;;18.95;10.35;;;;;;;-139.48;100.00;61774.03;5013139;28;20104;-74
2022/03/08 07:27:09;;;;;;;;;;;;;;;-139.48;100.00;61774.03;5013948;28;20056;-73
2022/03/08 07:29:53;;;;;;;19.50;10.40;;;;;;;-139.48;100.00;61774.03;5013176;28;20389;-73
2022/03/08 07:32:37;;;;;;;16.75;8.98;;;;;;;-139.48;100.00;61774.03;5013202;28;20048;-73
2022/03/08 07:35:20;;;;;;;16.92;9.88;;;;;;;-139.48;100.00;61774.03;5013238;28;20417;-70
2022/03/08 07:38:04;;;;;;;;;;;;;;;-139.48;100.00;61774.03;5013708;28;20044;-73
2022/03/08 07:40:48;;;;;;;17.43;9.33;;;;;;;-139.48;100.00;61774.03;5013066;28;19924;-73
2022/03/08 07:43:34;;;;;;;;;;;;;;;-139.48;100.00;61774.03;5013662;28;20425;-73
2022/03/08 07:46:18;;;;;;;19.85;9.27;;;;;;;-139.48;100.00;61774.03;5012507;28;20007;-73
2022/03/08 07:49:02;;;;;;;;;;;;;;;-139.48;100.00;61774.03;5013777;28;20052;-73
2022/03/08 07:51:45;;;;;;;21.50;10.07;;;;;;;-139.48;100.00;61774.03;5013063;28;19920;-71
2022/03/08 07:54:29;;;;;;;;;;;;;;;-139.48;100.00;61774.03;5012307;28;20037;-73
2022/03/08 07:57:14;;;;;;;13.07;8.03;;;;;;;-139.48;100.00;61774.03;5012961;28;20381;-73
2022/03/08 07:59:58;;;;;;;17.42;9.43;;;;;;;-139.48;100.00;61774.03;5013508;28;20049;-73
2022/03/08 08:02:42;;;;;;;18.98;9.82;;;;;;;-139.48;100.00;61774.03;5011960;28;20053;-73
2022/03/08 08:05:29;;;;;;;;;;;;;;;-139.48;100.00;61774.03;5013094;28;20127;-73
2022/03/08 08:08:13;;;;;;;16.25;9.52;;;;;;;-139.48;100.00;61774.03;5012948;28;19942;-72
2022/03/08 08:10:56;;;;;;;16.52;9.98;;;;;;;-139.48;100.00;61774.03;5013177;28;20052;-73
2022/03/08 08:13:40;;;;;;;16.83;9.48;;;;;;;-139.48;100.00;61774.03;5012837;28;20167;-73
2022/03/08 08:16:24;;;;;;;15.55;9.27;;;;;;;-139.48;100.00;61774.03;5012658;28;20103;-73
2022/03/08 08:19:08;;;;;;;15.13;9.38;;;;;;;-139.48;100.00;61774.03;5012603;28;20049;-73
2022/03/08 08:21:52;;;;;;;17.35;9.35;;;;;;;-139.48;100.00;61774.03;5012884;28;20048;-73
2022/03/08 08:24:36;;;;;;;15.50;9.93;;;;;;;-139.48;100.00;61774.03;5012541;28;20064;-73
2022/03/08 08:27:20;;;;;;;15.60;9.25;;;;;;;-139.48;100.00;61774.03;5012840;28;20048;-73
2022/03/08 08:30:06;;;;;;;16.98;10.23;;;;;;;-139.48;100.00;61774.03;5012748;28;20112;-73
2022/03/08 08:32:51;;;;;;;18.02;9.95;;;;;;;-139.48;100.00;61774.03;5012784;28;20088;-73
2022/03/08 08:35:35;;;;;;;33.83;19.58;;;;;;;-139.48;100.00;61774.03;5011490;28;20048;-73
2022/03/08 08:38:19;;;;;;;33.35;16.27;;;;;;;-139.48;100.00;61774.03;5012739;28;20088;-73
2022/03/08 08:41:03;;;;;;;;;;;;;;;-139.48;100.00;61774.03;5012960;28;20048;-73
2022/03/08 08:43:47;;;;;;;35.40;18.10;;;;;;;-139.48;100.00;61774.03;5012682;28;19971;-73
2022/03/08 08:46:31;;;;;;;56.75;27.55;;;;;;;-139.48;100.00;61774.03;5012294;28;20061;-71
2022/03/08 08:49:14;;;;;;;33.47;16.48;;;;;;;-0.46;70.35;101172.72;5012673;28;20084;-73
2022/03/08 08:51:58;;;;;;;20.90;11.00;;;;;;;3.66;52.45;101044.53;5012821;28;20104;-73
2022/03/08 08:54:42;;;;;;;19.05;11.20;;;;;;;3.72;51.33;101046.81;5012520;28;20460;-73
2022/03/08 08:57:26;;;;;;;16.95;10.15;;;;;;;3.86;51.16;101054.84;5014038;28;20183;-73
2022/03/08 09:00:11;;;;;;;104.80;68.05;;;;;;;3.97;50.91;101044.56;5015902;28;20052;-73
2022/03/08 09:02:55;;;;;;;92.85;56.30;;;;;;;4.12;52.11;101038.44;5016021;28;20092;-73
2022/03/08 09:05:38;;;;;;;96.93;66.15;;;;;;;4.29;50.59;101036.53;5016115;28;20133;-73
2022/03/08 09:08:24;;;;;;;20.60;12.38;;;;;;;4.39;40.57;101039.53;5015880;28;20136;-73
2022/03/08 09:11:10;;;;;;;65.30;38.13;;;;;;;-139.48;100.00;61774.03;5015881;28;20048;-73
2022/03/08 09:13:56;;;;;;;35.30;21.23;;;;;;;-139.48;100.00;61774.03;5015763;28;20533;-73
2022/03/08 09:16:42;;;;;;;34.33;19.27;;;;;;;-139.48;100.00;61774.03;5016046;28;20053;-73
2022/03/08 09:19:27;;;;;;;19.95;12.15;;;;;;;-139.48;100.00;61774.03;5015997;28;20053;-72
2022/03/08 09:22:11;;;;;;;32.60;18.80;;;;;;;-139.48;100.00;61774.03;5015770;28;20179;-73
2022/03/08 09:24:54;;;;;;;54.63;26.35;;;;;;;-139.48;100.00;61774.03;5015510;28;20476;-73
2022/03/08 09:27:38;;;;;;;33.65;16.60;;;;;;;-139.48;100.00;61774.03;5015944;28;20052;-73
2022/03/08 09:30:22;;;;;;;17.33;8.80;;;;;;;-139.48;100.00;61774.03;5015395;28;20512;-74
2022/03/08 09:33:06;;;;;;;21.50;13.63;;;;;;;4.58;50.79;101032.28;5015310;28;20053;-73
2022/03/08 09:35:50;;;;;;;39.22;23.08;;;;;;;8.02;42.22;101015.66;5015218;28;20108;-73
2022/03/08 09:38:34;;;;;;;24.13;15.10;;;;;;;9.21;38.21;101009.34;5014458;28;20466;-73
2022/03/08 09:41:18;;;;;;;18.85;11.10;;;;;;;9.21;38.21;101009.34;5014398;28;20570;-73
2022/03/08 09:44:03;;;;;;;31.48;17.98;;;;;;;11.03;35.11;101004.97;5014060;28;20509;-73
2022/03/08 09:46:47;;;;;;;24.75;14.95;;;;;;;12.09;34.11;101000.06;5015002;28;20164;-74
2022/03/08 09:49:31;;;;;;;28.40;21.33;;;;;;;13.82;30.98;100988.16;5014274;28;20048;-73
2022/03/08 09:52:15;;;;;;;23.45;15.65;;;;;;;13.21;30.88;100991.44;5015159;28;20539;-74
2022/03/08 09:54:58;;;;;;;18.70;13.77;;;;;;;14.42;29.99;100992.09;5014803;28;20445;-74
2022/03/08 09:57:42;;;;;;;14.43;10.02;;;;;;;14.60;29.09;100991.09;5015161;28;20138;-73
2022/03/08 10:00:27;;;;;;;14.15;9.68;;;;;;;14.79;28.47;100993.66;5013728;28;20092;-72
2022/03/08 10:03:11;;;;;;;25.48;18.95;;;;;;;15.58;28.31;101004.22;5013600;28;20052;-73
2022/03/08 10:05:56;;;;;;;16.30;11.40;;;;;;;15.90;27.33;100999.03;5014739;28;20080;-73
2022/03/08 10:08:39;;;;;;;31.58;21.30;;;;;;;15.55;27.73;101005.53;5014719;28;20100;-74
2022/03/08 10:11:23;;;;;;;38.45;27.20;;;;;;;15.85;27.00;100998.66;5014765;28;20072;-73
2022/03/08 10:14:11;;;;;;;;;;;;;;;16.83;26.04;100991.63;5015101;28;20152;-73
2022/03/08 10:16:55;;;;;;;19.38;15.82;;;;;;;17.26;25.42;100999.38;5013466;28;19924;-74
2022/03/08 10:19:44;;;;;;;11.43;9.73;;;;;;;16.74;26.36;100992.59;5014373;28;20052;-73
2022/03/08 10:22:39;;;;;;;15.40;12.57;;;;;;;18.33;24.68;100982.59;5014915;28;20080;-74
2022/03/08 10:25:25;;;;;;;15.32;11.45;;;;;;;18.45;23.84;100979.31;5014316;28;20057;-73
2022/03/08 10:28:09;;;;;;;18.95;13.55;;;;;;;17.73;25.54;100980.63;5014564;28;20409;-74
2022/03/08 10:30:53;;;;;;;17.55;14.40;;;;;;;18.71;23.54;100970.88;5014442;28;20191;-74
2022/03/08 10:33:37;;;;;;;18.63;13.88;;;;;;;17.77;24.72;100977.41;5014316;28;20057;-74
2022/03/08 10:36:23;;;;;;;19.30;16.20;;;;;;;18.67;24.89;100972.28;5014049;28;20061;-74
2022/03/08 10:39:08;;;;;;;21.27;16.40;;;;;;;18.77;23.67;100962.91;5013273;28;20080;-74
2022/03/08 10:41:55;;;;;;;18.58;13.45;;;;;;;19.46;22.78;100976.19;5014045;28;20045;-74
2022/03/08 10:44:41;;;;;;;31.75;24.52;;;;;;;19.00;23.39;100962.91;5014013;28;20073;-74
2022/03/08 10:47:25;;;;;;;14.73;12.52;;;;;;;18.25;24.28;100966.41;5013868;28;20088;-74
2022/03/08 10:50:14;;;;;;;19.42;15.73;;;;;;;18.36;23.64;100967.91;5014167;28;20103;-74
2022/03/08 10:52:59;;;;;;;29.88;19.35;;;;;;;19.30;23.00;100970.91;5012676;28;20084;-74
2022/03/08 10:55:46;;;;;;;31.92;25.42;;;;;;;20.40;22.73;100962.75;5013913;28;20088;-74
2022/03/08 10:58:30;;;;;;;13.13;10.15;;;;;;;21.01;22.21;100962.19;5013708;28;20131;-74
2022/03/08 11:01:14;;;;;;;;;;;;;;;20.61;22.42;100957.38;5014328;28;20525;-74
2022/03/08 11:03:58;;;;;;;15.90;14.25;;;;;;;22.91;20.70;100945.69;5013907;28;19920;-74
2022/03/08 11:06:43;;;;;;;15.32;12.98;;;;;;;22.69;20.08;100948.78;5014043;28;20118;-74
2022/03/08 11:09:28;;;;;;;22.08;19.38;;;;;;;21.40;20.70;100950.59;5013744;28;20104;-73
2022/03/08 11:12:13;;;;;;;16.00;9.70;;;;;;;21.31;20.92;100935.53;5013914;28;20103;-74
2022/03/08 11:14:57;;;;;;;12.95;10.85;;;;;;;21.31;20.92;100935.53;5013592;28;20052;-74
2022/03/08 11:17:46;;;;;;;12.05;10.68;;;;;;;22.57;19.20;100934.97;5012626;28;20061;-71
2022/03/08 11:20:30;;;;;;;12.23;9.50;;;;;;;22.67;19.33;100929.97;5013069;28;20121;-74
2022/03/08 11:23:14;;;;;;;;;;;;;;;21.97;20.08;100940.34;5013924;28;20048;-74
2022/03/08 11:25:59;;;;;;;12.05;9.90;;;;;;;21.54;20.30;100936.13;5064472;23;20034;-76
2022/03/08 11:28:47;;;;;;;13.02;10.18;;;;;;;22.12;19.57;100932.88;5032244;28;20107;-76
2022/03/08 11:31:34;;;;;;;10.68;8.55;;;;;;;21.80;19.88;100919.19;5033207;28;20451;-75
2022/03/08 11:34:26;;;;;;;11.93;9.95;;;;;;;20.99;20.71;100923.56;5031646;28;20048;-76
2022/03/08 11:37:17;;;;;;;18.45;12.77;;;;;;;20.86;20.72;100928.88;5032041;28;20576;-76
2022/03/08 11:40:11;;;;;;;19.92;12.20;;;;;;;21.83;20.47;100914.19;5032227;28;20040;-76
2022/03/08 11:42:59;;;;;;;;;;;;;;;21.96;19.87;100900.66;5033187;28;20512;-76
2022/03/08 11:45:44;;;;;;;17.50;12.48;;;;;;;-139.48;100.00;61774.03;5031674;28;19962;-76
2022/03/08 11:48:30;;;;;;;19.08;11.25;;;;;;;21.95;19.80;100903.56;5033143;28;20063;-76
2022/03/08 11:51:15;;;;;;;8.32;7.50;;;;;;;23.22;18.84;100891.53;5032685;28;20075;-76
2022/03/08 11:54:08;;;;;;;11.52;8.52;;;;;;;-139.48;100.00;61774.03;5032735;28;20409;-76
2022/03/08 11:56:52;;;;;;;;;;;;;;;-139.48;100.00;61774.03;5033296;28;20048;-76
2022/03/08 11:59:36;;;;;;;51.08;32.38;;;;;;;-139.48;100.00;61774.03;5031482;28;20059;-75
2022/03/08 12:02:20;;;;;;;59.78;39.60;;;;;;;-139.48;100.00;61774.03;5017996;28;20096;-74
2022/03/08 12:05:05;;;;;;;17.35;13.35;;;;;;;-139.48;100.00;61774.03;5032541;28;20068;-75
2022/03/08 12:07:49;;;;;;;47.50;35.28;;;;;;;-139.48;100.00;61774.03;5031788;28;20065;-75
2022/03/08 12:10:42;;;;;;;16.17;12.82;;;;;;;-139.48;100.00;61774.03;5031424;28;20535;-76
2022/03/08 12:13:28;;;;;;;42.83;30.83;;;;;;;-139.48;100.00;61774.03;5032650;28;20572;-76
2022/03/08 12:16:13;;;;;;;44.47;30.08;;;;;;;-139.48;100.00;61774.03;5032515;28;20053;-75
2022/03/08 12:19:00;;;;;;;28.98;20.70;;;;;;;-139.48;100.00;61774.03;5031592;28;20099;-76
2022/03/08 12:21:45;;;;;;;35.03;25.60;;;;;;;-139.48;100.00;61774.03;5031327;28;20056;-75
2022/03/08 12:24:39;;;;;;;11.10;8.35;;;;;;;-139.48;100.00;61774.03;5032334;28;20123;-76
2022/03/08 12:27:24;;;;;;;;;;;;;;;-139.48;100.00;61774.03;5032015;28;20048;-75
2022/03/08 12:30:08;;;;;;;15.30;12.25;;;;;;;-139.48;100.00;61774.03;5031334;28;19920;-75